createdAt,value
2019-05-21T00:02:13.096Z,23.43
2019-05-21T00:04:37.632Z,21.50
2019-05-21T00:07:02.075Z,22.43
2019-05-21T00:09:26.646Z,22.90
2019-05-21T00:11:51.255Z,22.53
2019-05-21T00:14:15.862Z,21.20
2019-05-21T00:16:40.376Z,22.13
2019-05-21T00:19:04.945Z,22.03
2019-05-21T00:21:29.360Z,21.20
2019-05-21T00:23:53.822Z,22.13
2019-05-21T00:26:18.360Z,20.47
2019-05-21T00:28:41.678Z,21.33
2019-05-21T00:31:42.992Z,22.53
2019-05-21T00:34:44.481Z,22.53
2019-05-21T00:37:45.335Z,21.80
2019-05-21T00:40:45.963Z,22.90
2019-05-21T00:43:10.960Z,20.77
2019-05-21T00:45:35.423Z,21.97
2019-05-21T00:47:59.868Z,21.23
2019-05-21T00:50:24.347Z,22.03
2019-05-21T00:52:48.931Z,22.20
2019-05-21T00:55:13.538Z,24.47
2019-05-21T00:57:38.151Z,21.17
2019-05-21T01:00:02.784Z,22.33
2019-05-21T01:02:27.262Z,22.63
2019-05-21T01:05:00.333Z,21.93
2019-05-21T01:07:18.088Z,23.00
2019-05-21T01:09:42.571Z,21.70
2019-05-21T01:12:07.055Z,23.03
2019-05-21T01:14:31.531Z,22.47
2019-05-21T01:16:55.968Z,22.10
2019-05-21T01:19:20.555Z,24.37
2019-05-21T01:21:45.012Z,22.60
2019-05-21T01:24:09.559Z,22.00
2019-05-21T01:26:34.112Z,24.10
2019-05-21T01:28:58.714Z,25.03
2019-05-21T01:31:23.247Z,24.57
2019-05-21T01:33:47.708Z,26.03
2019-05-21T01:36:12.194Z,25.07
2019-05-21T01:38:36.648Z,23.60
2019-05-21T01:41:01.111Z,24.57
2019-05-21T01:43:25.648Z,23.17
2019-05-21T01:45:50.098Z,22.83
2019-05-21T01:48:14.625Z,23.90
2019-05-21T01:50:39.093Z,23.77
2019-05-21T01:53:03.606Z,23.90
2019-05-21T01:55:28.101Z,22.80
2019-05-21T01:57:52.574Z,23.87
2019-05-21T02:00:17.485Z,24.47
2019-05-21T02:02:42.022Z,23.03
2019-05-21T02:05:07.755Z,23.93
2019-05-21T02:07:32.211Z,24.47
2019-05-21T02:09:59.204Z,26.57
2019-05-21T02:12:23.705Z,23.77
2019-05-21T02:14:48.236Z,23.57
2019-05-21T02:17:12.728Z,21.60
2019-05-21T02:19:37.314Z,21.97
2019-05-21T02:22:01.833Z,25.67
2019-05-21T02:24:26.245Z,29.07
2019-05-21T02:26:50.719Z,24.40
2019-05-21T02:29:15.161Z,26.23
2019-05-21T02:31:39.705Z,25.23
2019-05-21T02:34:04.237Z,27.10
2019-05-21T02:36:28.838Z,28.27
2019-05-21T02:38:53.401Z,27.27
2019-05-21T02:41:18.158Z,29.13
2019-05-21T02:43:42.555Z,28.03
2019-05-21T02:46:07.185Z,28.40
2019-05-21T02:48:31.642Z,26.87
2019-05-21T02:50:56.175Z,29.33
2019-05-21T02:53:20.698Z,28.13
2019-05-21T02:55:45.354Z,28.63
2019-05-21T02:58:09.803Z,29.77
2019-05-21T03:00:39.215Z,29.20
2019-05-21T03:03:05.521Z,28.43
2019-05-21T03:05:30.121Z,26.97
2019-05-21T03:07:54.666Z,29.40
2019-05-21T03:10:19.203Z,27.90
2019-05-21T03:12:43.793Z,29.03
2019-05-21T03:15:08.717Z,30.47
2019-05-21T03:17:33.307Z,28.23
2019-05-21T03:19:58.728Z,28.90
2019-05-21T03:22:23.371Z,29.00
2019-05-21T03:24:47.919Z,26.53
2019-05-21T03:27:12.441Z,28.73
2019-05-21T03:29:36.920Z,26.33
2019-05-21T03:32:01.475Z,27.53
2019-05-21T03:34:26.052Z,29.10
2019-05-21T03:36:50.528Z,26.30
2019-05-21T03:39:19.083Z,28.07
2019-05-21T03:41:41.211Z,27.17
2019-05-21T03:44:05.681Z,26.43
2019-05-21T03:46:30.989Z,25.70
2019-05-21T03:48:55.536Z,26.00
2019-05-21T03:51:20.049Z,27.83
2019-05-21T03:53:44.519Z,24.80
2019-05-21T03:56:09.046Z,28.00
2019-05-21T03:58:33.590Z,25.43
2019-05-21T04:00:58.067Z,25.87
2019-05-21T04:03:22.600Z,28.07
2019-05-21T04:05:47.056Z,25.90
2019-05-21T04:08:11.528Z,28.50
2019-05-21T04:10:36.035Z,27.03
2019-05-21T04:13:07.299Z,27.07
2019-05-21T04:15:31.793Z,25.57
2019-05-21T04:17:57.943Z,27.00
2019-05-21T04:20:22.446Z,27.00
2019-05-21T04:22:52.975Z,24.80
2019-05-21T04:25:17.553Z,27.97
2019-05-21T04:27:42.126Z,25.60
2019-05-21T04:30:11.221Z,26.67
2019-05-21T04:32:34.106Z,25.30
2019-05-21T04:34:57.620Z,25.47
2019-05-21T04:37:21.909Z,25.63
2019-05-21T04:39:46.389Z,28.53
2019-05-21T04:42:10.885Z,23.93
2019-05-21T04:44:35.371Z,27.47
2019-05-21T04:46:59.883Z,28.97
2019-05-21T04:49:24.350Z,24.63
2019-05-21T04:51:48.889Z,26.07
2019-05-21T04:54:13.368Z,26.07
2019-05-21T04:56:37.914Z,26.10
2019-05-21T04:59:02.384Z,27.10
2019-05-21T05:01:26.906Z,25.43
2019-05-21T05:03:51.365Z,26.17
2019-05-21T05:06:15.805Z,26.33
2019-05-21T05:08:40.370Z,25.83
2019-05-21T05:11:04.965Z,24.93
2019-05-21T05:13:29.456Z,23.77
2019-05-21T05:15:53.976Z,25.10
2019-05-21T05:18:18.534Z,27.17
2019-05-21T05:20:42.998Z,28.00
2019-05-21T05:23:07.503Z,24.73
2019-05-21T05:25:32.061Z,23.17
2019-05-21T05:27:56.511Z,25.80
2019-05-21T05:30:21.647Z,35.30
2019-05-21T05:32:46.155Z,43.07
2019-05-21T05:35:11.221Z,45.87
2019-05-21T05:37:43.513Z,44.53
2019-05-21T05:40:01.887Z,47.10
2019-05-21T05:42:26.305Z,49.63
2019-05-21T05:44:50.848Z,45.97
2019-05-21T05:47:15.445Z,47.40
2019-05-21T05:49:41.547Z,46.10
2019-05-21T05:52:06.025Z,52.03
2019-05-21T05:54:30.598Z,49.33
2019-05-21T05:56:55.098Z,47.77
2019-05-21T05:59:19.720Z,51.73
2019-05-21T06:01:44.246Z,48.77
2019-05-21T06:04:08.741Z,46.07
2019-05-21T06:06:33.253Z,51.73
2019-05-21T06:08:57.736Z,44.33
2019-05-21T06:11:22.180Z,48.90
2019-05-21T06:13:46.662Z,43.30
2019-05-21T06:16:11.180Z,43.30
2019-05-21T06:18:35.927Z,40.77
2019-05-21T06:21:00.453Z,39.40
2019-05-21T06:23:24.902Z,39.47
2019-05-21T06:25:49.439Z,31.47
2019-05-21T06:28:13.942Z,29.47
2019-05-21T06:30:38.583Z,30.83
2019-05-21T06:33:03.037Z,27.03
2019-05-21T06:35:27.601Z,25.90
2019-05-21T06:37:52.045Z,23.57
2019-05-21T06:40:16.661Z,23.67
2019-05-21T06:42:41.106Z,22.93
2019-05-21T06:45:07.074Z,21.90
2019-05-21T06:47:31.520Z,22.43
2019-05-21T06:49:56.073Z,22.93
2019-05-21T06:52:20.515Z,19.63
2019-05-21T06:54:45.109Z,20.40
2019-05-21T06:57:09.650Z,20.17
2019-05-21T06:59:34.243Z,20.87
2019-05-21T07:01:58.697Z,18.90
2019-05-21T07:04:23.181Z,16.00
2019-05-21T07:06:47.690Z,17.73
2019-05-21T07:09:12.201Z,20.37
2019-05-21T07:11:36.645Z,16.10
2019-05-21T07:14:01.111Z,18.93
2019-05-21T07:16:25.584Z,18.67
2019-05-21T07:18:50.062Z,17.33
2019-05-21T07:21:14.571Z,15.07
2019-05-21T07:23:39.148Z,16.30
2019-05-21T07:26:03.695Z,14.93
2019-05-21T07:28:28.458Z,14.33
2019-05-21T07:30:52.929Z,15.37
2019-05-21T07:33:17.384Z,15.67
2019-05-21T07:35:41.925Z,16.53
2019-05-21T07:38:06.520Z,16.47
2019-05-21T07:40:31.136Z,13.67
2019-05-21T07:42:55.600Z,14.50
2019-05-21T07:45:20.208Z,15.00
2019-05-21T07:47:44.659Z,15.87
2019-05-21T07:50:09.292Z,16.20
2019-05-21T07:52:33.815Z,14.50
2019-05-21T07:54:58.310Z,15.23
2019-05-21T07:57:22.751Z,14.93
2019-05-21T07:59:47.232Z,16.57
2019-05-21T08:02:11.751Z,18.23
2019-05-21T08:04:36.256Z,17.83
2019-05-21T08:07:00.920Z,17.07
2019-05-21T08:09:25.312Z,18.17
2019-05-21T08:11:49.819Z,19.87
2019-05-21T08:14:14.373Z,18.10
2019-05-21T08:16:38.956Z,16.43
2019-05-21T08:19:03.407Z,16.03
2019-05-21T08:21:27.922Z,17.70
2019-05-21T08:23:52.367Z,17.40
2019-05-21T08:26:16.849Z,18.43
2019-05-21T08:28:41.302Z,17.77
2019-05-21T08:31:05.939Z,18.30
2019-05-21T08:33:30.426Z,18.60
2019-05-21T08:35:54.972Z,20.87
2019-05-21T08:38:19.553Z,18.40
2019-05-21T08:40:44.166Z,18.80
2019-05-21T08:43:08.726Z,17.37
2019-05-21T08:45:33.296Z,14.93
2019-05-21T08:47:57.893Z,15.73
2019-05-21T08:50:22.439Z,15.73
2019-05-21T08:52:46.875Z,16.17
2019-05-21T08:55:11.451Z,15.63
2019-05-21T08:57:36.072Z,15.43
2019-05-21T09:00:00.592Z,14.13
2019-05-21T09:02:25.944Z,16.17
2019-05-21T09:04:50.535Z,17.17
2019-05-21T09:07:15.251Z,14.97
2019-05-21T09:09:50.259Z,13.27
2019-05-21T09:12:06.135Z,13.63
2019-05-21T09:14:30.674Z,13.77
2019-05-21T09:16:55.152Z,13.27
2019-05-21T09:19:19.604Z,16.87
2019-05-21T09:21:44.083Z,17.83
2019-05-21T09:24:08.702Z,17.30
2019-05-21T09:26:33.252Z,21.90
2019-05-21T09:28:57.729Z,22.50
2019-05-21T09:31:22.295Z,22.13
2019-05-21T09:33:46.812Z,25.77
2019-05-21T09:36:11.286Z,22.90
2019-05-21T09:38:35.812Z,22.87
2019-05-21T09:41:00.489Z,22.77
2019-05-21T09:43:25.007Z,24.27
2019-05-21T09:45:49.468Z,22.37
2019-05-21T09:48:14.049Z,21.93
2019-05-21T09:50:38.650Z,24.30
2019-05-21T09:53:03.184Z,27.10
2019-05-21T09:55:27.748Z,23.13
2019-05-21T09:57:53.976Z,23.67
2019-05-21T10:00:20.805Z,25.27
2019-05-21T10:02:45.430Z,27.50
2019-05-21T10:05:10.120Z,21.90
2019-05-21T10:07:39.828Z,25.60
2019-05-21T10:10:00.905Z,26.30
2019-05-21T10:12:25.439Z,26.77
2019-05-21T10:14:49.883Z,25.43
2019-05-21T10:17:14.391Z,24.33
2019-05-21T10:19:38.997Z,25.03
2019-05-21T10:22:03.955Z,29.17
2019-05-21T10:24:28.656Z,24.77
2019-05-21T10:26:53.296Z,22.23
2019-05-21T10:29:17.755Z,25.83
2019-05-21T10:31:42.249Z,25.97
2019-05-21T10:34:06.676Z,26.77
2019-05-21T10:36:31.279Z,27.13
2019-05-21T10:38:55.912Z,26.67
2019-05-21T10:41:20.377Z,24.17
2019-05-21T10:43:44.973Z,27.03
2019-05-21T10:46:09.803Z,27.57
2019-05-21T10:48:34.343Z,27.97
2019-05-21T10:50:58.901Z,28.60
2019-05-21T10:53:23.587Z,28.43
2019-05-21T10:55:48.043Z,27.70
2019-05-21T10:58:12.753Z,26.70
2019-05-21T11:00:37.827Z,23.97
2019-05-21T11:03:09.717Z,22.87
2019-05-21T11:05:36.062Z,28.60
2019-05-21T11:08:22.150Z,26.80
2019-05-21T11:10:26.959Z,24.80
2019-05-21T11:12:51.572Z,26.50
2019-05-21T11:15:17.924Z,28.23
2019-05-21T11:17:59.046Z,28.00
2019-05-21T11:20:09.099Z,24.73
2019-05-21T11:22:33.599Z,20.57
2019-05-21T11:24:58.060Z,17.57
2019-05-21T11:27:22.613Z,19.07
2019-05-21T11:29:47.088Z,13.97
2019-05-21T11:32:11.691Z,14.37
2019-05-21T11:34:36.308Z,13.57
2019-05-21T11:37:00.899Z,11.47
2019-05-21T11:39:25.369Z,10.97
2019-05-21T11:41:51.778Z,7.90
2019-05-21T11:44:16.400Z,8.00
2019-05-21T11:46:40.862Z,6.70
2019-05-21T11:49:05.562Z,6.53
2019-05-21T11:51:30.208Z,6.90
2019-05-21T11:53:54.683Z,5.77
2019-05-21T11:56:19.273Z,5.40
2019-05-21T11:58:43.750Z,6.17
2019-05-21T12:01:08.330Z,4.20
2019-05-21T12:03:32.794Z,5.03
2019-05-21T12:05:57.231Z,4.27
2019-05-21T12:08:21.685Z,4.43
2019-05-21T12:10:46.614Z,4.07
2019-05-21T12:13:11.198Z,3.33
2019-05-21T12:15:35.737Z,4.00
2019-05-21T12:18:00.249Z,4.83
2019-05-21T12:20:36.141Z,4.10
2019-05-21T12:22:51.847Z,5.30
2019-05-21T12:25:16.468Z,4.80
2019-05-21T12:27:41.073Z,3.00
2019-05-21T12:30:08.030Z,4.07
2019-05-21T12:32:32.556Z,4.43
2019-05-21T12:34:57.102Z,3.67
2019-05-21T12:37:21.682Z,3.03
2019-05-21T12:39:46.296Z,3.40
2019-05-21T12:42:10.750Z,3.97
2019-05-21T12:44:35.203Z,3.33
2019-05-21T12:46:59.724Z,4.70
2019-05-21T12:49:24.517Z,4.47
2019-05-21T12:51:48.959Z,3.90
2019-05-21T12:54:13.424Z,4.67
2019-05-21T12:56:40.798Z,4.60
2019-05-21T12:59:04.185Z,4.20
2019-05-21T13:01:28.706Z,5.47
2019-05-21T13:03:55.407Z,6.67
2019-05-21T13:06:19.372Z,4.63
2019-05-21T13:08:43.932Z,4.67
2019-05-21T13:11:08.622Z,4.33
2019-05-21T13:13:33.130Z,4.10
2019-05-21T13:15:57.676Z,4.73
2019-05-21T13:18:22.198Z,3.77
2019-05-21T13:20:46.810Z,3.03
2019-05-21T13:23:11.522Z,3.03
2019-05-21T13:25:36.803Z,3.00
2019-05-21T13:28:01.386Z,3.00
2019-05-21T13:30:25.997Z,3.43
2019-05-21T13:32:50.544Z,3.63
2019-05-21T13:35:15.326Z,2.80
2019-05-21T13:37:40.010Z,2.90
2019-05-21T13:40:07.865Z,2.87
2019-05-21T13:42:32.290Z,2.83
2019-05-21T13:44:57.022Z,3.50
2019-05-21T13:47:21.814Z,3.50
2019-05-21T13:49:46.258Z,4.87
2019-05-21T13:52:10.903Z,3.93
2019-05-21T13:54:35.375Z,3.87
2019-05-21T13:57:00.014Z,4.43
2019-05-21T13:59:24.781Z,4.17
2019-05-21T14:01:49.259Z,5.07
2019-05-21T14:04:14.395Z,6.03
2019-05-21T14:06:38.950Z,6.33
2019-05-21T14:09:04.711Z,6.80
2019-05-21T14:11:29.634Z,9.07
2019-05-21T14:13:54.211Z,8.20
2019-05-21T14:16:18.672Z,8.90
2019-05-21T14:18:43.191Z,9.10
2019-05-21T14:21:07.787Z,10.97
2019-05-21T14:23:32.237Z,10.47
2019-05-21T14:25:56.748Z,8.93
2019-05-21T14:28:21.425Z,9.90
2019-05-21T14:30:46.100Z,12.17
2019-05-21T14:33:10.585Z,11.70
2019-05-21T14:35:35.318Z,11.40
2019-05-21T14:37:59.896Z,11.27
2019-05-21T14:40:31.579Z,9.77
2019-05-21T14:42:59.679Z,10.60
2019-05-21T14:45:17.856Z,10.80
2019-05-21T14:47:42.421Z,12.90
2019-05-21T14:50:08.892Z,13.23
2019-05-21T14:52:33.420Z,15.10
2019-05-21T14:54:57.999Z,18.97
2019-05-21T14:57:22.536Z,16.43
2019-05-21T14:59:47.073Z,19.63
2019-05-21T15:02:11.616Z,18.20
2019-05-21T15:04:36.534Z,20.93
2019-05-21T15:07:01.193Z,22.13
2019-05-21T15:09:25.743Z,19.97
2019-05-21T15:11:51.841Z,21.13
2019-05-21T15:14:16.365Z,22.03
2019-05-21T15:16:40.917Z,21.73
2019-05-21T15:19:05.549Z,24.70
2019-05-21T15:21:31.699Z,22.17
2019-05-21T15:23:56.413Z,21.93
2019-05-21T15:26:20.986Z,22.47
2019-05-21T15:28:45.516Z,25.40
2019-05-21T15:31:10.140Z,21.40
2019-05-21T15:33:34.610Z,23.27
2019-05-21T15:35:59.070Z,22.40
2019-05-21T15:38:23.554Z,18.40
2019-05-21T15:41:06.575Z,16.23
2019-05-21T15:43:14.366Z,18.93
2019-05-21T15:45:38.861Z,15.20
2019-05-21T15:48:03.420Z,12.43
2019-05-21T15:50:27.931Z,11.13
2019-05-21T15:52:52.401Z,11.60
2019-05-21T15:55:18.392Z,9.00
2019-05-21T15:57:42.896Z,9.33
2019-05-21T16:00:09.903Z,10.13
2019-05-21T16:02:34.360Z,9.93
2019-05-21T16:04:58.863Z,13.73
2019-05-21T16:07:23.323Z,12.90
2019-05-21T16:09:47.807Z,14.23
2019-05-21T16:12:12.361Z,11.83
2019-05-21T16:14:36.920Z,15.90
2019-05-21T16:17:01.474Z,12.27
2019-05-21T16:19:26.019Z,13.00
2019-05-21T16:21:50.581Z,12.20
2019-05-21T16:24:15.128Z,16.87
2019-05-21T16:26:39.605Z,12.67
2019-05-21T16:29:04.335Z,14.57
2019-05-21T16:31:29.048Z,17.73
2019-05-21T16:33:53.540Z,18.10
2019-05-21T16:36:18.075Z,18.37
2019-05-21T16:38:42.557Z,14.57
2019-05-21T16:41:07.146Z,15.30
2019-05-21T16:43:31.707Z,16.67
2019-05-21T16:45:56.158Z,14.90
2019-05-21T16:48:20.659Z,13.03
2019-05-21T16:50:45.273Z,14.57
2019-05-21T16:53:09.711Z,18.23
2019-05-21T16:55:35.858Z,12.43
2019-05-21T16:58:00.489Z,13.10
2019-05-21T17:00:25.759Z,14.37
2019-05-21T17:02:50.298Z,12.27
2019-05-21T17:05:15.315Z,13.93
2019-05-21T17:07:39.756Z,12.67
2019-05-21T17:10:08.451Z,13.03
2019-05-21T17:12:32.948Z,18.00
2019-05-21T17:14:57.437Z,12.83
2019-05-21T17:17:21.954Z,12.60
2019-05-21T17:19:46.500Z,14.90
2019-05-21T17:22:10.945Z,13.40
2019-05-21T17:24:35.439Z,17.17
2019-05-21T17:26:59.906Z,15.60
2019-05-21T17:29:24.392Z,15.53
2019-05-21T17:31:48.901Z,16.27
2019-05-21T17:34:13.497Z,17.33
2019-05-21T17:36:37.974Z,18.87
2019-05-21T17:39:02.749Z,20.17
2019-05-21T17:41:27.286Z,23.73
2019-05-21T17:43:51.906Z,21.40
2019-05-21T17:46:16.365Z,19.73
2019-05-21T17:48:40.933Z,21.57
2019-05-21T17:51:08.920Z,26.07
2019-05-21T17:53:31.916Z,19.90
2019-05-21T17:55:56.405Z,22.67
2019-05-21T17:58:21.235Z,20.50
2019-05-21T18:00:50.052Z,19.80
2019-05-21T18:03:14.785Z,20.63
2019-05-21T18:05:39.447Z,21.07
2019-05-21T18:08:04.643Z,24.30
2019-05-21T18:10:29.202Z,22.47
2019-05-21T18:12:53.737Z,22.60
2019-05-21T18:15:18.541Z,21.27
2019-05-21T18:17:43.306Z,21.23
2019-05-21T18:20:08.642Z,24.07
2019-05-21T18:22:33.200Z,23.77
2019-05-21T18:24:57.895Z,23.63
2019-05-21T18:27:22.722Z,21.00
2019-05-21T18:29:47.172Z,22.20
2019-05-21T18:32:11.821Z,19.47
2019-05-21T18:34:36.421Z,21.03
2019-05-21T18:37:01.045Z,21.37
2019-05-21T18:39:25.505Z,21.47
2019-05-21T18:41:50.102Z,21.87
2019-05-21T18:44:14.626Z,18.67
2019-05-21T18:46:39.090Z,20.17
2019-05-21T18:49:03.538Z,22.40
2019-05-21T18:51:28.031Z,16.90
2019-05-21T18:53:52.557Z,17.53
2019-05-21T18:56:17.101Z,19.97
2019-05-21T18:58:41.888Z,21.60
2019-05-21T19:01:06.751Z,20.00
2019-05-21T19:03:31.415Z,18.60
2019-05-21T19:05:56.001Z,23.77
2019-05-21T19:08:20.615Z,21.17
2019-05-21T19:10:45.275Z,16.47
2019-05-21T19:13:09.765Z,17.30
2019-05-21T19:15:34.374Z,17.93
2019-05-21T19:17:58.851Z,20.83
2019-05-21T19:20:23.388Z,14.97
2019-05-21T19:22:47.871Z,15.53
2019-05-21T19:25:12.582Z,15.27
2019-05-21T19:27:37.300Z,15.53
2019-05-21T19:30:01.933Z,14.13
2019-05-21T19:32:26.492Z,14.43
2019-05-21T19:34:50.982Z,14.57
2019-05-21T19:37:15.593Z,13.93
2019-05-21T19:39:40.442Z,13.10
2019-05-21T19:42:05.352Z,13.50
2019-05-21T19:44:29.884Z,15.97
2019-05-21T19:46:54.456Z,14.47
2019-05-21T19:49:18.915Z,15.53
2019-05-21T19:51:43.551Z,15.90
2019-05-21T19:54:08.027Z,15.43
2019-05-21T19:56:36.197Z,17.53
2019-05-21T19:58:58.913Z,14.97
2019-05-21T20:01:23.882Z,15.90
2019-05-21T20:03:48.455Z,16.47
2019-05-21T20:06:14.856Z,15.67
2019-05-21T20:08:39.391Z,14.73
2019-05-21T20:11:04.877Z,15.60
2019-05-21T20:13:32.500Z,14.43
2019-05-21T20:15:55.569Z,14.37
2019-05-21T20:18:20.436Z,14.40
2019-05-21T20:20:45.039Z,15.13
2019-05-21T20:23:10.566Z,15.10
2019-05-21T20:25:35.416Z,12.07
2019-05-21T20:28:00.557Z,11.57
2019-05-21T20:30:26.462Z,13.70
2019-05-21T20:32:51.898Z,14.63
2019-05-21T20:35:17.956Z,12.57
2019-05-21T20:37:44.132Z,12.40
2019-05-21T20:40:11.294Z,12.33
2019-05-21T20:42:35.907Z,14.90
2019-05-21T20:45:00.555Z,12.10
2019-05-21T20:47:25.278Z,11.50
2019-05-21T20:49:50.760Z,12.43
2019-05-21T20:52:18.836Z,12.47
2019-05-21T20:54:44.312Z,12.17
2019-05-21T20:57:10.455Z,12.13
2019-05-21T20:59:35.098Z,12.20
2019-05-21T21:01:59.920Z,13.03
2019-05-21T21:04:24.742Z,15.17
2019-05-21T21:06:49.778Z,13.37
2019-05-21T21:09:14.498Z,12.10
2019-05-21T21:11:40.117Z,12.03
2019-05-21T21:14:17.451Z,12.63
2019-05-21T21:16:33.823Z,12.47
2019-05-21T21:18:58.530Z,13.00
2019-05-21T21:21:23.304Z,11.37
2019-05-21T21:23:49.946Z,10.87
2019-05-21T21:26:15.045Z,11.03
2019-05-21T21:28:39.677Z,11.30
2019-05-21T21:31:06.081Z,12.13
2019-05-21T21:33:30.641Z,11.43
2019-05-21T21:35:55.236Z,11.57
2019-05-21T21:38:24.723Z,11.70
2019-05-21T21:40:49.723Z,11.63
2019-05-21T21:43:14.261Z,11.70
2019-05-21T21:45:38.891Z,12.37
2019-05-21T21:48:03.485Z,12.10
2019-05-21T21:50:28.423Z,11.20
2019-05-21T21:52:54.341Z,13.40
2019-05-21T21:55:18.980Z,14.30
2019-05-21T21:57:43.509Z,12.50
2019-05-21T22:00:27.799Z,13.37
2019-05-21T22:02:52.415Z,12.87
2019-05-21T22:05:18.189Z,13.60
2019-05-21T22:07:43.399Z,12.83
2019-05-21T22:10:08.478Z,13.93
2019-05-21T22:12:33.079Z,13.43
2019-05-21T22:15:00.287Z,14.10
2019-05-21T22:17:25.373Z,14.77
2019-05-21T22:19:50.036Z,15.47
2019-05-21T22:22:14.643Z,15.87
2019-05-21T22:24:39.267Z,15.67
2019-05-21T22:27:03.870Z,17.67
2019-05-21T22:29:28.515Z,17.63
2019-05-21T22:31:53.123Z,19.93
2019-05-21T22:34:18.253Z,20.07
2019-05-21T22:36:42.925Z,19.23
2019-05-21T22:39:09.500Z,18.37
2019-05-21T22:41:33.983Z,20.17
2019-05-21T22:43:58.513Z,20.10
2019-05-21T22:46:23.121Z,22.20
2019-05-21T22:48:47.648Z,18.87
2019-05-21T22:51:12.386Z,20.37
2019-05-21T22:53:36.887Z,23.57
2019-05-21T22:56:01.355Z,20.87
2019-05-21T22:58:25.834Z,24.27
2019-05-21T23:00:51.354Z,24.67
2019-05-21T23:03:15.874Z,20.50
2019-05-21T23:05:40.522Z,22.40
2019-05-21T23:08:05.680Z,20.43
2019-05-21T23:10:30.646Z,22.03
2019-05-21T23:12:55.354Z,22.20
2019-05-21T23:15:25.096Z,24.00
2019-05-21T23:17:46.452Z,27.17
2019-05-21T23:20:13.435Z,23.50
2019-05-21T23:22:38.333Z,27.07
2019-05-21T23:25:03.462Z,29.77
2019-05-21T23:27:28.465Z,27.83
2019-05-21T23:29:53.384Z,30.10
2019-05-21T23:32:19.724Z,25.70
2019-05-21T23:34:45.147Z,27.13
2019-05-21T23:37:11.379Z,28.67
2019-05-21T23:39:37.744Z,24.87
2019-05-21T23:42:02.843Z,27.20
2019-05-21T23:44:27.548Z,30.67
2019-05-21T23:46:52.451Z,28.20
2019-05-21T23:49:16.992Z,28.13
2019-05-21T23:51:41.623Z,29.97
2019-05-21T23:54:08.991Z,30.47
2019-05-21T23:56:39.574Z,31.90
2019-05-21T23:59:04.879Z,33.03
